LSZS/SMV METAR and TAF weather

Enter ICAO airport designator
Station Type Date Time Source
LSZS METAR 2019/10/23 21:20 UTC NOAA

LSZS 232120Z AUTO VRB01KT 9999 BKN080 04/03 Q1021


Station Type Date Time Source
LSZS Decoded METAR 2019/10/23 21:20 UTC NOAA

Station name not available
Oct 23, 2019 - 05:20 PM EDT / 2019.10.23 2120 UTC
Wind: Variable at 1 MPH (1 KT):0
Visibility: greater than 7 mile(s):0
Sky conditions: mostly cloudy
Temperature: 39 F (4 C)
Dew Point: 37 F (3 C)
Relative Humidity: 93%
Pressure (altimeter): 30.15 in. Hg (1021 hPa)
ob: LSZS 232120Z AUTO VRB01KT 9999 BKN080 04/03 Q1021
cycle: 21

Station Type Date Time Source
LSZS TAF 2014/12/22 20:03 UTC NOAA

TAF
AMD LSZS 222054Z 2220/2224 CNL

Example: see airport list